createdAt,value
2023-02-26T00:00:41.076Z,949.20
2023-02-26T00:01:41.046Z,949.23
2023-02-26T00:02:41.106Z,949.28
2023-02-26T00:03:41.028Z,949.20
2023-02-26T00:04:41.053Z,949.22
2023-02-26T00:05:41.031Z,949.18
2023-02-26T00:06:41.010Z,949.22
2023-02-26T00:07:40.997Z,949.19
2023-02-26T00:08:40.985Z,949.22
2023-02-26T00:09:40.987Z,949.23
2023-02-26T00:10:41.046Z,949.21
2023-02-26T00:11:40.993Z,949.30
2023-02-26T00:12:41.009Z,949.23
2023-02-26T00:13:40.954Z,949.26
2023-02-26T00:14:40.921Z,949.27
2023-02-26T00:15:40.919Z,949.30
2023-02-26T00:16:40.915Z,949.32
2023-02-26T00:17:40.896Z,949.31
2023-02-26T00:18:40.874Z,949.39
2023-02-26T00:19:40.894Z,949.37
2023-02-26T00:20:40.853Z,949.38
2023-02-26T00:21:40.870Z,949.42
2023-02-26T00:22:40.864Z,949.41
2023-02-26T00:23:40.825Z,949.44
2023-02-26T00:24:40.829Z,949.47
2023-02-26T00:25:40.795Z,949.46
2023-02-26T00:26:40.800Z,949.45
2023-02-26T00:27:40.793Z,949.47
2023-02-26T00:28:40.757Z,949.43
2023-02-26T00:29:40.754Z,949.41
2023-02-26T00:30:40.834Z,949.43
2023-02-26T00:31:40.807Z,949.41
2023-02-26T00:32:40.802Z,949.56
2023-02-26T00:33:40.704Z,949.49
2023-02-26T00:34:40.757Z,949.43
2023-02-26T00:35:40.687Z,949.45
2023-02-26T00:36:41.669Z,949.45
2023-02-26T00:37:41.211Z,949.32
2023-02-26T00:38:40.669Z,949.43
2023-02-26T00:39:40.696Z,949.49
2023-02-26T00:40:40.683Z,949.51
2023-02-26T00:41:40.735Z,949.49
2023-02-26T00:42:40.634Z,949.47
2023-02-26T00:43:40.625Z,949.46
2023-02-26T00:44:40.597Z,949.49
2023-02-26T00:45:40.613Z,949.50
2023-02-26T00:46:40.609Z,949.43
2023-02-26T00:47:40.576Z,949.47
2023-02-26T00:48:40.570Z,949.41
2023-02-26T00:49:40.535Z,949.46
2023-02-26T00:50:40.547Z,949.46
2023-02-26T00:51:40.517Z,949.48
2023-02-26T00:52:41.497Z,949.51
2023-02-26T00:53:40.489Z,949.43
2023-02-26T00:54:40.483Z,949.49
2023-02-26T00:55:40.512Z,949.53
2023-02-26T00:56:40.484Z,949.47
2023-02-26T00:57:40.464Z,949.50
2023-02-26T00:58:40.484Z,949.47
2023-02-26T00:59:40.417Z,949.56
2023-02-26T01:00:40.423Z,949.53
2023-02-26T01:01:40.487Z,949.50
2023-02-26T01:02:40.469Z,949.51
2023-02-26T01:03:40.437Z,949.57
2023-02-26T01:04:40.398Z,949.54
2023-02-26T01:05:40.364Z,949.55
2023-02-26T01:06:40.378Z,949.57
2023-02-26T01:07:40.383Z,949.57
2023-02-26T01:08:40.325Z,949.55
2023-02-26T01:09:40.353Z,949.52
2023-02-26T01:10:40.320Z,949.58
2023-02-26T01:11:40.291Z,949.59
2023-02-26T01:12:40.286Z,949.58
2023-02-26T01:13:40.283Z,949.64
2023-02-26T01:14:40.279Z,949.63
2023-02-26T01:15:40.271Z,949.63
2023-02-26T01:16:40.253Z,949.57
2023-02-26T01:17:40.257Z,949.62
2023-02-26T01:18:40.260Z,949.62
2023-02-26T01:19:40.253Z,949.57
2023-02-26T01:20:40.212Z,949.62
2023-02-26T01:21:40.222Z,949.59
2023-02-26T01:22:40.209Z,949.58
2023-02-26T01:23:40.188Z,949.52
2023-02-26T01:24:40.172Z,949.55
2023-02-26T01:25:40.182Z,949.55
2023-02-26T01:26:40.132Z,949.52
2023-02-26T01:27:40.201Z,949.52
2023-02-26T01:28:40.122Z,949.51
2023-02-26T01:29:40.119Z,949.56
2023-02-26T01:30:40.181Z,949.56
2023-02-26T01:31:40.241Z,949.55
2023-02-26T01:32:40.234Z,949.60
2023-02-26T01:33:40.058Z,949.62
2023-02-26T01:34:40.056Z,949.59
2023-02-26T01:35:40.264Z,949.59
2023-02-26T01:36:40.092Z,949.61
2023-02-26T01:37:40.042Z,949.62
2023-02-26T01:38:40.091Z,949.64
2023-02-26T01:39:40.010Z,949.58
2023-02-26T01:40:40.032Z,949.66
2023-02-26T01:41:40.014Z,949.61
2023-02-26T01:42:39.962Z,949.64
2023-02-26T01:43:39.965Z,949.67
2023-02-26T01:44:39.957Z,949.67
2023-02-26T01:45:40.095Z,949.70
2023-02-26T01:46:39.952Z,949.70
2023-02-26T01:47:39.924Z,949.72
2023-02-26T01:48:39.955Z,949.71
2023-02-26T01:49:39.886Z,949.77
2023-02-26T01:50:39.904Z,949.70
2023-02-26T01:51:39.895Z,949.75
2023-02-26T01:52:39.856Z,949.71
2023-02-26T01:53:39.856Z,949.76
2023-02-26T01:54:39.910Z,949.71
2023-02-26T01:55:39.867Z,949.78
2023-02-26T01:56:39.842Z,949.72
2023-02-26T01:57:39.796Z,949.73
2023-02-26T01:58:39.836Z,949.75
2023-02-26T01:59:39.781Z,949.76
2023-02-26T02:00:39.778Z,949.74
2023-02-26T02:01:39.818Z,949.74
2023-02-26T02:02:39.852Z,949.74
2023-02-26T02:03:39.836Z,949.75
2023-02-26T02:04:39.756Z,949.81
2023-02-26T02:05:39.737Z,949.73
2023-02-26T02:06:39.718Z,949.80
2023-02-26T02:07:39.771Z,949.80
2023-02-26T02:08:39.694Z,949.80
2023-02-26T02:09:39.776Z,949.78
2023-02-26T02:10:39.726Z,949.80
2023-02-26T02:11:39.642Z,949.88
2023-02-26T02:12:39.693Z,949.83
2023-02-26T02:13:39.628Z,949.92
2023-02-26T02:14:39.635Z,949.84
2023-02-26T02:15:39.670Z,949.84
2023-02-26T02:16:39.683Z,949.87
2023-02-26T02:17:39.619Z,949.86
2023-02-26T02:18:39.585Z,949.90
2023-02-26T02:19:39.654Z,949.90
2023-02-26T02:20:39.538Z,949.89
2023-02-26T02:21:39.551Z,949.87
2023-02-26T02:22:39.533Z,949.85
2023-02-26T02:23:39.595Z,949.90
2023-02-26T02:24:39.534Z,949.96
2023-02-26T02:25:39.503Z,949.90
2023-02-26T02:26:39.487Z,949.96
2023-02-26T02:27:39.471Z,949.98
2023-02-26T02:28:39.465Z,949.96
2023-02-26T02:29:39.463Z,949.98
2023-02-26T02:30:39.486Z,949.95
2023-02-26T02:31:39.523Z,949.97
2023-02-26T02:32:39.562Z,949.96
2023-02-26T02:33:39.403Z,949.99
2023-02-26T02:34:39.411Z,949.97
2023-02-26T02:35:39.391Z,950.03
2023-02-26T02:36:39.444Z,949.99
2023-02-26T02:37:40.128Z,950.01
2023-02-26T02:38:39.453Z,949.96
2023-02-26T02:39:39.344Z,949.95
2023-02-26T02:40:39.328Z,950.05
2023-02-26T02:41:39.355Z,950.04
2023-02-26T02:42:39.309Z,950.04
2023-02-26T02:43:39.306Z,950.05
2023-02-26T02:44:39.299Z,950.07
2023-02-26T02:45:39.335Z,950.07
2023-02-26T02:46:39.306Z,950.08
2023-02-26T02:47:40.074Z,950.06
2023-02-26T02:48:39.236Z,950.08
2023-02-26T02:49:39.275Z,950.09
2023-02-26T02:50:39.354Z,950.09
2023-02-26T02:51:39.210Z,950.11
2023-02-26T02:52:39.227Z,950.12
2023-02-26T02:53:39.242Z,950.09
2023-02-26T02:54:39.190Z,950.06
2023-02-26T02:55:39.172Z,950.07
2023-02-26T02:56:39.156Z,950.13
2023-02-26T02:57:39.144Z,950.15
2023-02-26T02:58:39.144Z,950.12
2023-02-26T02:59:39.182Z,950.12
2023-02-26T03:00:39.355Z,950.13
2023-02-26T03:01:39.102Z,950.16
2023-02-26T03:02:39.169Z,950.12
2023-02-26T03:03:39.136Z,950.22
2023-02-26T03:04:39.627Z,950.19
2023-02-26T03:05:39.130Z,950.22
2023-02-26T03:06:39.089Z,950.23
2023-02-26T03:07:39.113Z,950.13
2023-02-26T03:08:39.045Z,950.12
2023-02-26T03:09:39.106Z,950.17
2023-02-26T03:10:39.098Z,950.22
2023-02-26T03:11:39.069Z,950.26
2023-02-26T03:12:39.081Z,950.16
2023-02-26T03:13:38.982Z,950.23
2023-02-26T03:14:39.034Z,950.20
2023-02-26T03:15:38.960Z,950.24
2023-02-26T03:16:39.086Z,950.34
2023-02-26T03:17:38.970Z,950.28
2023-02-26T03:18:38.980Z,950.32
2023-02-26T03:19:38.927Z,950.31
2023-02-26T03:20:38.897Z,950.29
2023-02-26T03:21:38.980Z,950.32
2023-02-26T03:22:38.978Z,950.38
2023-02-26T03:23:38.880Z,950.30
2023-02-26T03:24:38.914Z,950.41
2023-02-26T03:25:38.921Z,950.43
2023-02-26T03:26:38.935Z,950.40
2023-02-26T03:27:38.874Z,950.45
2023-02-26T03:28:38.818Z,950.42
2023-02-26T03:29:38.816Z,950.40
2023-02-26T03:30:38.866Z,950.39
2023-02-26T03:31:38.805Z,950.44
2023-02-26T03:32:38.794Z,950.44
2023-02-26T03:33:38.767Z,950.47
2023-02-26T03:34:38.770Z,950.44
2023-02-26T03:35:38.740Z,950.52
2023-02-26T03:36:38.745Z,950.53
2023-02-26T03:37:38.734Z,950.54
2023-02-26T03:38:38.821Z,950.56
2023-02-26T03:39:38.740Z,950.66
2023-02-26T03:40:39.476Z,950.54
2023-02-26T03:41:38.679Z,950.59
2023-02-26T03:42:39.584Z,950.60
2023-02-26T03:43:38.662Z,950.51
2023-02-26T03:44:38.703Z,950.56
2023-02-26T03:45:38.763Z,950.60
2023-02-26T03:46:38.645Z,950.65
2023-02-26T03:47:38.713Z,950.65
2023-02-26T03:48:38.638Z,950.62
2023-02-26T03:49:38.626Z,950.66
2023-02-26T03:50:38.596Z,950.71
2023-02-26T03:51:38.578Z,950.68
2023-02-26T03:52:38.631Z,950.69
2023-02-26T03:53:38.598Z,950.68
2023-02-26T03:54:38.565Z,950.73
2023-02-26T03:55:38.552Z,950.75
2023-02-26T03:56:38.543Z,950.78
2023-02-26T03:57:38.572Z,950.78
2023-02-26T03:58:38.665Z,950.76
2023-02-26T03:59:38.482Z,950.77
2023-02-26T04:00:38.534Z,950.75
2023-02-26T04:01:38.472Z,950.76
2023-02-26T04:02:38.488Z,950.81
2023-02-26T04:03:38.461Z,950.74
2023-02-26T04:04:38.552Z,950.75
2023-02-26T04:05:38.456Z,950.78
2023-02-26T04:06:38.416Z,950.76
2023-02-26T04:07:38.399Z,950.79
2023-02-26T04:08:38.418Z,950.88
2023-02-26T04:09:38.384Z,950.84
2023-02-26T04:10:38.425Z,950.78
2023-02-26T04:11:38.386Z,950.89
2023-02-26T04:12:38.389Z,950.87
2023-02-26T04:13:38.343Z,950.89
2023-02-26T04:14:38.339Z,950.87
2023-02-26T04:15:39.103Z,950.81
2023-02-26T04:16:38.347Z,950.83
2023-02-26T04:17:38.369Z,950.94
2023-02-26T04:18:38.285Z,950.87
2023-02-26T04:19:38.267Z,950.82
2023-02-26T04:20:38.313Z,950.90
2023-02-26T04:21:38.262Z,950.88
2023-02-26T04:22:38.363Z,950.90
2023-02-26T04:23:38.331Z,950.86
2023-02-26T04:24:38.235Z,950.93
2023-02-26T04:25:38.243Z,950.90
2023-02-26T04:26:38.386Z,950.90
2023-02-26T04:27:38.192Z,950.91
2023-02-26T04:28:38.177Z,950.91
2023-02-26T04:29:38.235Z,950.96
2023-02-26T04:30:38.239Z,950.97
2023-02-26T04:31:38.208Z,951.01
2023-02-26T04:32:38.279Z,950.97
2023-02-26T04:33:38.211Z,950.96
2023-02-26T04:34:38.118Z,951.02
2023-02-26T04:35:38.180Z,950.98
2023-02-26T04:36:38.140Z,950.97
2023-02-26T04:37:38.096Z,951.05
2023-02-26T04:38:38.137Z,951.03
2023-02-26T04:39:38.097Z,951.03
2023-02-26T04:40:38.129Z,951.07
2023-02-26T04:41:38.098Z,951.03
2023-02-26T04:42:38.021Z,951.03
2023-02-26T04:43:38.012Z,951.10
2023-02-26T04:44:38.105Z,951.07
2023-02-26T04:45:38.114Z,951.09
2023-02-26T04:46:38.137Z,951.04
2023-02-26T04:47:37.974Z,951.07
2023-02-26T04:48:37.956Z,951.05
2023-02-26T04:49:37.947Z,951.13
2023-02-26T04:50:37.956Z,951.13
2023-02-26T04:51:38.492Z,951.09
2023-02-26T04:52:37.931Z,951.16
2023-02-26T04:53:37.929Z,951.14
2023-02-26T04:54:37.918Z,951.21
2023-02-26T04:55:37.956Z,951.14
2023-02-26T04:56:37.911Z,951.18
2023-02-26T04:57:37.954Z,951.22
2023-02-26T04:58:37.845Z,951.20
2023-02-26T04:59:37.845Z,951.15
2023-02-26T05:00:37.840Z,951.14
2023-02-26T05:01:37.989Z,951.12
2023-02-26T05:02:37.797Z,951.16
2023-02-26T05:03:37.791Z,951.18
2023-02-26T05:04:38.007Z,951.17
2023-02-26T05:05:37.828Z,951.14
2023-02-26T05:06:37.778Z,951.15
2023-02-26T05:07:37.749Z,951.19
2023-02-26T05:08:38.054Z,951.21
2023-02-26T05:09:37.736Z,951.17
2023-02-26T05:10:37.749Z,951.22
2023-02-26T05:11:37.734Z,951.21
2023-02-26T05:12:37.693Z,951.22
2023-02-26T05:13:37.719Z,951.18
2023-02-26T05:14:37.696Z,951.17
2023-02-26T05:15:37.679Z,951.21
2023-02-26T05:16:37.665Z,951.22
2023-02-26T05:17:37.720Z,951.29
2023-02-26T05:18:37.647Z,951.26
2023-02-26T05:19:37.640Z,951.26
2023-02-26T05:20:37.630Z,951.25
2023-02-26T05:21:37.615Z,951.28
2023-02-26T05:22:37.606Z,951.29
2023-02-26T05:23:37.592Z,951.26
2023-02-26T05:24:37.562Z,951.29
2023-02-26T05:25:37.560Z,951.36
2023-02-26T05:26:37.553Z,951.34
2023-02-26T05:27:37.576Z,951.34
2023-02-26T05:28:38.255Z,951.38
2023-02-26T05:29:37.533Z,951.41
2023-02-26T05:30:38.163Z,951.43
2023-02-26T05:31:37.536Z,951.41
2023-02-26T05:32:37.489Z,951.47
2023-02-26T05:33:37.493Z,951.47
2023-02-26T05:34:37.455Z,951.51
2023-02-26T05:35:37.484Z,951.48
2023-02-26T05:36:38.051Z,951.43
2023-02-26T05:37:37.430Z,951.50
2023-02-26T05:38:37.452Z,951.52
2023-02-26T05:39:37.436Z,951.48
2023-02-26T05:40:37.422Z,951.48
2023-02-26T05:41:37.412Z,951.48
2023-02-26T05:42:37.417Z,951.48
2023-02-26T05:43:37.415Z,951.49
2023-02-26T05:44:37.391Z,951.54
2023-02-26T05:45:37.355Z,951.54
2023-02-26T05:46:37.461Z,951.55
2023-02-26T05:47:37.395Z,951.55
2023-02-26T05:48:37.318Z,951.56
2023-02-26T05:49:37.325Z,951.57
2023-02-26T05:50:37.339Z,951.52
2023-02-26T05:51:37.281Z,951.51
2023-02-26T05:52:37.271Z,951.58
2023-02-26T05:53:37.251Z,951.58
2023-02-26T05:54:37.241Z,951.59
2023-02-26T05:55:37.234Z,951.58
2023-02-26T05:56:37.260Z,951.53
2023-02-26T05:57:37.200Z,951.62
2023-02-26T05:58:37.256Z,951.59
2023-02-26T05:59:37.225Z,951.59
2023-02-26T06:00:37.216Z,951.57
2023-02-26T06:01:37.441Z,951.54
2023-02-26T06:02:37.151Z,951.57
2023-02-26T06:03:37.160Z,951.54
2023-02-26T06:04:37.132Z,951.55
2023-02-26T06:05:37.600Z,951.53
2023-02-26T06:06:37.112Z,951.50
2023-02-26T06:07:37.182Z,951.50
2023-02-26T06:08:37.089Z,951.49
2023-02-26T06:09:37.082Z,951.54
2023-02-26T06:10:37.064Z,951.55
2023-02-26T06:11:37.078Z,951.58
2023-02-26T06:12:37.083Z,951.59
2023-02-26T06:13:37.048Z,951.61
2023-02-26T06:14:38.035Z,951.57
2023-02-26T06:15:37.574Z,951.63
2023-02-26T06:16:37.025Z,951.76
2023-02-26T06:17:38.961Z,951.76
2023-02-26T06:18:36.990Z,951.74
2023-02-26T06:19:37.010Z,951.80
2023-02-26T06:20:37.121Z,951.87
2023-02-26T06:21:36.993Z,951.95
2023-02-26T06:22:36.945Z,951.94
2023-02-26T06:23:36.944Z,951.98
2023-02-26T06:24:36.978Z,951.98
2023-02-26T06:25:36.908Z,952.00
2023-02-26T06:26:36.941Z,952.08
2023-02-26T06:27:36.951Z,952.09
2023-02-26T06:28:36.897Z,952.14
2023-02-26T06:29:36.860Z,952.19
2023-02-26T06:30:36.893Z,952.19
2023-02-26T06:31:36.924Z,952.19
2023-02-26T06:32:36.968Z,952.20
2023-02-26T06:33:36.886Z,952.25
2023-02-26T06:34:36.818Z,952.24
2023-02-26T06:35:36.819Z,952.20
2023-02-26T06:36:36.869Z,952.24
2023-02-26T06:37:36.805Z,952.30
2023-02-26T06:38:36.770Z,952.31
2023-02-26T06:39:36.756Z,952.30
2023-02-26T06:40:37.453Z,952.30
2023-02-26T06:41:36.756Z,952.30
2023-02-26T06:42:37.622Z,952.35
2023-02-26T06:43:36.773Z,952.38
2023-02-26T06:44:36.729Z,952.41
2023-02-26T06:45:36.772Z,952.37
2023-02-26T06:46:36.893Z,952.35
2023-02-26T06:47:36.696Z,952.34
2023-02-26T06:48:36.673Z,952.38
2023-02-26T06:49:36.669Z,952.44
2023-02-26T06:50:36.654Z,952.45
2023-02-26T06:51:36.620Z,952.46
2023-02-26T06:52:37.496Z,952.49
2023-02-26T06:53:36.619Z,952.55
2023-02-26T06:54:36.754Z,952.51
2023-02-26T06:55:36.601Z,952.53
2023-02-26T06:56:36.649Z,952.56
2023-02-26T06:57:36.594Z,952.59
2023-02-26T06:58:36.592Z,952.64
2023-02-26T06:59:36.545Z,952.61
2023-02-26T07:00:36.533Z,952.67
2023-02-26T07:01:36.530Z,952.68
2023-02-26T07:02:36.551Z,952.74
2023-02-26T07:03:36.685Z,952.71
2023-02-26T07:04:37.068Z,952.73
2023-02-26T07:05:36.545Z,952.74
2023-02-26T07:06:36.525Z,952.69
2023-02-26T07:07:36.467Z,952.69
2023-02-26T07:08:36.496Z,952.70
2023-02-26T07:09:37.535Z,952.74
2023-02-26T07:10:36.499Z,952.75
2023-02-26T07:11:36.458Z,952.75
2023-02-26T07:12:36.405Z,952.75
2023-02-26T07:13:36.407Z,952.82
2023-02-26T07:14:36.462Z,952.82
2023-02-26T07:15:36.364Z,952.84
2023-02-26T07:16:36.414Z,952.89
2023-02-26T07:17:36.441Z,952.85
2023-02-26T07:18:36.386Z,952.89
2023-02-26T07:19:37.012Z,952.91
2023-02-26T07:20:36.347Z,952.93
2023-02-26T07:21:36.329Z,952.99
2023-02-26T07:22:36.299Z,952.96
2023-02-26T07:23:36.364Z,953.02
2023-02-26T07:24:36.460Z,953.03
2023-02-26T07:25:36.290Z,953.00
2023-02-26T07:26:36.413Z,953.05
2023-02-26T07:27:36.295Z,953.05
2023-02-26T07:28:36.242Z,953.06
2023-02-26T07:29:36.244Z,953.05
2023-02-26T07:30:37.233Z,953.04
2023-02-26T07:31:36.351Z,953.04
2023-02-26T07:32:36.311Z,953.00
2023-02-26T07:33:36.217Z,952.98
2023-02-26T07:34:36.174Z,953.01
2023-02-26T07:35:36.162Z,953.02
2023-02-26T07:36:36.166Z,953.02
2023-02-26T07:37:36.134Z,953.08
2023-02-26T07:38:36.159Z,953.04
2023-02-26T07:39:36.195Z,953.09
2023-02-26T07:40:36.110Z,953.06
2023-02-26T07:41:36.092Z,953.07
2023-02-26T07:42:36.081Z,953.06
2023-02-26T07:43:36.132Z,953.12
2023-02-26T07:44:36.068Z,953.18
2023-02-26T07:45:36.045Z,953.16
2023-02-26T07:46:36.064Z,953.17
2023-02-26T07:47:36.032Z,953.16
2023-02-26T07:48:36.051Z,953.15
2023-02-26T07:49:36.364Z,953.13
2023-02-26T07:50:35.997Z,953.14
2023-02-26T07:51:36.080Z,953.16
2023-02-26T07:52:35.982Z,953.13
2023-02-26T07:53:35.989Z,953.11
2023-02-26T07:54:36.202Z,953.06
2023-02-26T07:55:35.943Z,953.09
2023-02-26T07:56:35.961Z,953.07
2023-02-26T07:57:35.909Z,953.09
2023-02-26T07:58:36.082Z,953.07
2023-02-26T07:59:35.892Z,953.06
2023-02-26T08:00:36.006Z,953.03
2023-02-26T08:01:35.954Z,953.05
2023-02-26T08:02:35.851Z,953.02
2023-02-26T08:03:35.872Z,953.09
2023-02-26T08:04:36.476Z,953.04
2023-02-26T08:06:48.478Z,953.18
2023-02-26T08:07:48.498Z,953.27
2023-02-26T08:08:48.519Z,953.29
2023-02-26T08:09:48.498Z,953.33
2023-02-26T08:10:48.518Z,953.36
2023-02-26T08:11:48.447Z,953.37
2023-02-26T08:12:48.486Z,953.33
2023-02-26T08:13:48.434Z,953.34
2023-02-26T08:14:48.498Z,953.33
2023-02-26T08:15:48.433Z,953.36
2023-02-26T08:16:48.444Z,953.33
2023-02-26T08:17:48.448Z,953.31
2023-02-26T08:18:48.376Z,953.32
2023-02-26T08:19:48.405Z,953.37
2023-02-26T08:20:48.354Z,953.39
2023-02-26T08:21:50.045Z,953.38
2023-02-26T08:22:48.355Z,953.40
2023-02-26T08:23:48.501Z,953.40
2023-02-26T08:24:48.396Z,953.43
2023-02-26T08:25:48.304Z,953.49
2023-02-26T08:26:48.334Z,953.55
2023-02-26T08:27:48.966Z,953.60
2023-02-26T08:28:48.281Z,953.57
2023-02-26T08:29:48.387Z,953.60
2023-02-26T08:30:48.327Z,953.62
2023-02-26T08:31:48.335Z,953.60
2023-02-26T08:32:48.386Z,953.62
2023-02-26T08:33:48.207Z,953.65
2023-02-26T08:34:48.213Z,953.66
2023-02-26T08:35:48.176Z,953.67
2023-02-26T08:36:48.186Z,953.62
2023-02-26T08:37:48.179Z,953.60
2023-02-26T08:38:48.176Z,953.65
2023-02-26T08:39:48.166Z,953.65
2023-02-26T08:40:48.142Z,953.63
2023-02-26T08:41:48.110Z,953.61
2023-02-26T08:42:48.146Z,953.60
2023-02-26T08:43:48.366Z,953.63
2023-02-26T08:44:48.158Z,953.69
2023-02-26T08:45:48.097Z,953.71
2023-02-26T08:46:48.093Z,953.74
2023-02-26T08:47:56.578Z,953.72
2023-02-26T08:48:48.128Z,953.76
2023-02-26T08:49:48.038Z,953.76
2023-02-26T08:50:48.075Z,953.72
2023-02-26T08:51:48.106Z,953.76
2023-02-26T08:52:49.076Z,953.79
2023-02-26T08:53:48.013Z,953.77
2023-02-26T08:54:48.047Z,953.83
2023-02-26T08:55:48.517Z,953.81
2023-02-26T08:56:48.888Z,953.84
2023-02-26T08:57:48.067Z,953.82
2023-02-26T09:00:00.600Z,953.86
2023-02-26T09:01:00.606Z,953.83
2023-02-26T09:02:00.668Z,953.86
2023-02-26T09:03:00.901Z,953.89
2023-02-26T09:04:00.683Z,953.89
2023-02-26T09:05:09.154Z,953.97
2023-02-26T09:06:00.598Z,953.95
2023-02-26T09:07:00.861Z,953.95
2023-02-26T09:08:00.864Z,954.00
2023-02-26T09:09:01.495Z,954.01
2023-02-26T09:10:00.562Z,953.99
2023-02-26T09:11:00.602Z,954.02
2023-02-26T09:12:00.495Z,954.05
2023-02-26T09:13:00.489Z,954.10
2023-02-26T09:14:00.509Z,954.03
2023-02-26T09:15:00.567Z,954.04
2023-02-26T09:16:00.488Z,954.06
2023-02-26T09:17:02.504Z,954.10
2023-02-26T09:18:00.418Z,954.10
2023-02-26T09:19:00.437Z,954.14
2023-02-26T09:20:01.166Z,954.15
2023-02-26T09:21:00.426Z,954.17
2023-02-26T09:22:01.076Z,954.15
2023-02-26T09:23:00.386Z,954.18
2023-02-26T09:24:00.394Z,954.22
2023-02-26T09:25:00.670Z,954.21
2023-02-26T09:26:00.384Z,954.20
2023-02-26T09:27:00.341Z,954.22
2023-02-26T09:28:00.375Z,954.27
2023-02-26T09:29:00.336Z,954.23
2023-02-26T09:30:00.359Z,954.27
2023-02-26T09:31:00.301Z,954.26
2023-02-26T09:32:00.494Z,954.30
2023-02-26T09:33:00.267Z,954.36
2023-02-26T09:34:00.275Z,954.33
2023-02-26T09:35:00.262Z,954.35
2023-02-26T09:36:00.270Z,954.38
2023-02-26T09:37:00.213Z,954.40
2023-02-26T09:38:00.408Z,954.43
2023-02-26T09:39:00.254Z,954.38
2023-02-26T09:40:00.241Z,954.38
2023-02-26T09:41:00.227Z,954.39
2023-02-26T09:42:00.537Z,954.36
2023-02-26T09:43:00.159Z,954.41
2023-02-26T09:44:00.152Z,954.42
2023-02-26T09:45:00.360Z,954.49
2023-02-26T09:46:00.256Z,954.49
2023-02-26T09:47:00.200Z,954.51
2023-02-26T09:48:00.098Z,954.50
2023-02-26T09:49:00.106Z,954.49
2023-02-26T09:50:00.130Z,954.46
2023-02-26T09:51:00.103Z,954.51
2023-02-26T09:52:00.155Z,954.47
2023-02-26T09:53:00.108Z,954.45
2023-02-26T09:54:00.068Z,954.46
2023-02-26T09:55:00.038Z,954.46
2023-02-26T09:56:00.034Z,954.41
2023-02-26T09:57:00.260Z,954.42
2023-02-26T09:58:00.000Z,954.43
2023-02-26T09:59:00.014Z,954.50
2023-02-26T10:00:00.007Z,954.50
2023-02-26T10:00:59.990Z,954.47
2023-02-26T10:02:00.058Z,954.50
2023-02-26T10:02:59.964Z,954.51
2023-02-26T10:03:59.964Z,954.52
2023-02-26T10:04:59.925Z,954.48
2023-02-26T10:05:59.921Z,954.47
2023-02-26T10:06:59.932Z,954.51
2023-02-26T10:07:59.895Z,954.49
2023-02-26T10:08:59.916Z,954.58
2023-02-26T10:09:59.900Z,954.49
2023-02-26T10:10:59.901Z,954.53
2023-02-26T10:11:59.862Z,954.53
2023-02-26T10:12:59.887Z,954.55
2023-02-26T10:13:59.831Z,954.55
2023-02-26T10:14:59.815Z,954.57
2023-02-26T10:15:59.901Z,954.56
2023-02-26T10:16:59.816Z,954.55
2023-02-26T10:17:59.941Z,954.54
2023-02-26T10:19:00.589Z,954.53
2023-02-26T10:19:59.771Z,954.54
2023-02-26T10:20:59.774Z,954.50
2023-02-26T10:21:59.741Z,954.53
2023-02-26T10:22:59.744Z,954.47
2023-02-26T10:23:59.854Z,954.44
2023-02-26T10:24:59.761Z,954.55
2023-02-26T10:25:59.718Z,954.51
2023-02-26T10:26:59.690Z,954.49
2023-02-26T10:27:59.668Z,954.42
2023-02-26T10:28:59.682Z,954.48
2023-02-26T10:29:59.685Z,954.46
2023-02-26T10:30:59.740Z,954.44
2023-02-26T10:31:59.750Z,954.47
2023-02-26T10:32:59.643Z,954.46
2023-02-26T11:35:16.921Z,954.48
